createdAt,value
2023-02-18T00:02:20.480Z,91.87
2023-02-18T00:04:46.853Z,91.83
2023-02-18T00:07:13.306Z,92.08
2023-02-18T00:09:39.713Z,92.05
2023-02-18T00:12:06.368Z,92.18
2023-02-18T00:14:32.797Z,92.03
2023-02-18T00:16:59.157Z,92.20
2023-02-18T00:19:25.491Z,92.08
2023-02-18T00:21:51.846Z,92.08
2023-02-18T00:24:18.338Z,92.25
2023-02-18T00:26:45.564Z,92.18
2023-02-18T00:29:12.320Z,92.25
2023-02-18T00:31:39.577Z,92.20
2023-02-18T00:34:06.456Z,92.23
2023-02-18T00:36:33.504Z,92.41
2023-02-18T00:39:03.492Z,92.40
2023-02-18T00:41:30.794Z,92.50
2023-02-18T00:43:57.184Z,92.63
2023-02-18T00:46:25.632Z,92.37
2023-02-18T00:48:52.031Z,92.47
2023-02-18T00:51:18.407Z,92.42
2023-02-18T00:53:44.827Z,92.67
2023-02-18T00:56:11.312Z,92.48
2023-02-18T00:58:38.532Z,92.61
2023-02-18T01:01:07.538Z,92.61
2023-02-18T01:03:34.863Z,92.68
2023-02-18T01:06:01.277Z,92.74
2023-02-18T01:08:27.702Z,92.94
2023-02-18T01:10:56.084Z,92.91
2023-02-18T01:13:24.416Z,92.95
2023-02-18T01:15:51.435Z,92.83
2023-02-18T01:18:17.922Z,92.83
2023-02-18T01:20:44.824Z,93.01
2023-02-18T01:23:12.949Z,93.21
2023-02-18T01:25:40.207Z,93.01
2023-02-18T01:28:08.512Z,93.05
2023-02-18T01:30:35.158Z,93.16
2023-02-18T01:33:01.641Z,93.41
2023-02-18T01:35:28.434Z,93.44
2023-02-18T01:37:54.808Z,93.18
2023-02-18T01:40:24.108Z,93.55
2023-02-18T01:42:50.556Z,93.35
2023-02-18T01:45:35.436Z,93.59
2023-02-18T01:48:04.688Z,93.53
2023-02-18T01:50:35.859Z,93.72
2023-02-18T01:53:02.973Z,93.48
2023-02-18T01:55:29.480Z,93.75
2023-02-18T01:57:56.105Z,93.84
2023-02-18T02:00:23.000Z,93.75
2023-02-18T02:02:52.362Z,93.89
2023-02-18T02:05:22.108Z,93.62
2023-02-18T02:07:51.764Z,93.92
2023-02-18T02:10:19.689Z,93.82
2023-02-18T02:13:00.495Z,93.76
2023-02-18T02:15:47.256Z,93.98
2023-02-18T02:18:36.801Z,93.95
2023-02-18T02:21:37.200Z,94.03
2023-02-18T02:24:32.815Z,94.37
2023-02-18T02:27:14.681Z,94.41
2023-02-18T02:30:18.661Z,94.42
2023-02-18T02:33:19.932Z,94.55
2023-02-18T02:35:52.489Z,94.43
2023-02-18T02:38:29.551Z,94.53
2023-02-18T02:41:10.124Z,94.29
2023-02-18T02:43:51.684Z,94.83
2023-02-18T02:46:19.723Z,94.72
2023-02-18T02:48:58.321Z,94.72
2023-02-18T02:51:35.913Z,94.75
2023-02-18T02:54:24.922Z,94.88
2023-02-18T02:57:07.476Z,95.04
2023-02-18T02:59:38.017Z,94.93
2023-02-18T03:02:29.136Z,95.26
2023-02-18T03:05:45.733Z,95.46
2023-02-18T03:08:38.114Z,95.45
2023-02-18T03:11:07.435Z,95.54
2023-02-18T03:14:09.016Z,95.98
2023-02-18T03:16:44.277Z,96.10
2023-02-18T03:19:14.092Z,96.04
2023-02-18T03:22:00.432Z,96.26
2023-02-18T03:24:31.982Z,96.11
2023-02-18T03:27:06.159Z,96.49
2023-02-18T03:29:33.630Z,96.39
2023-02-18T03:32:05.489Z,96.59
2023-02-18T03:34:38.136Z,96.77
2023-02-18T03:37:05.893Z,96.80
2023-02-18T03:39:35.232Z,96.87
2023-02-18T03:42:01.649Z,97.19
2023-02-18T03:44:28.046Z,97.32
2023-02-18T03:46:54.598Z,97.15
2023-02-18T03:49:21.107Z,97.17
2023-02-18T03:51:47.749Z,97.05
2023-02-18T03:54:14.694Z,97.09
2023-02-18T03:56:41.448Z,96.99
2023-02-18T03:59:08.167Z,97.12
2023-02-18T04:01:35.681Z,97.01
2023-02-18T04:04:03.094Z,97.28
2023-02-18T04:06:29.589Z,97.29
2023-02-18T04:08:55.956Z,97.37
2023-02-18T04:11:22.274Z,97.12
2023-02-18T04:13:48.769Z,97.27
2023-02-18T04:16:15.275Z,97.50
2023-02-18T04:18:41.707Z,97.42
2023-02-18T04:21:08.156Z,97.35
2023-02-18T04:23:34.622Z,97.32
2023-02-18T04:26:01.036Z,97.31
2023-02-18T04:28:27.422Z,97.37
2023-02-18T04:30:53.773Z,97.67
2023-02-18T04:33:20.147Z,97.65
2023-02-18T04:35:46.490Z,97.44
2023-02-18T04:38:12.951Z,97.50
2023-02-18T04:40:39.368Z,97.53
2023-02-18T04:43:05.732Z,97.59
2023-02-18T04:45:32.212Z,97.50
2023-02-18T04:47:58.602Z,97.53
2023-02-18T04:50:25.036Z,97.44
2023-02-18T04:52:51.433Z,97.52
2023-02-18T04:55:17.850Z,97.52
2023-02-18T04:57:44.204Z,97.45
2023-02-18T05:00:15.360Z,97.27
2023-02-18T05:02:41.918Z,97.45
2023-02-18T05:05:08.574Z,97.31
2023-02-18T05:07:35.305Z,97.32
2023-02-18T05:10:01.709Z,97.30
2023-02-18T05:12:28.066Z,97.55
2023-02-18T05:14:54.458Z,97.45
2023-02-18T05:17:20.912Z,97.53
2023-02-18T05:19:47.316Z,97.45
2023-02-18T05:22:13.829Z,97.27
2023-02-18T05:24:40.256Z,97.29
2023-02-18T05:27:06.686Z,97.38
2023-02-18T05:29:33.013Z,97.24
2023-02-18T05:31:59.439Z,97.42
2023-02-18T05:34:25.871Z,97.49
2023-02-18T05:36:52.928Z,97.55
2023-02-18T05:39:19.269Z,97.49
2023-02-18T05:41:45.605Z,97.83
2023-02-18T05:44:30.344Z,97.50
2023-02-18T05:47:04.560Z,97.55
2023-02-18T05:49:32.446Z,97.59
2023-02-18T05:51:59.337Z,97.71
2023-02-18T05:54:26.788Z,97.47
2023-02-18T05:56:53.621Z,97.82
2023-02-18T05:59:20.595Z,97.76
2023-02-18T06:01:47.653Z,97.78
2023-02-18T06:04:14.811Z,97.80
2023-02-18T06:06:41.408Z,97.77
2023-02-18T06:09:08.398Z,97.75
2023-02-18T06:11:35.173Z,97.74
2023-02-18T06:14:01.980Z,97.42
2023-02-18T06:16:29.141Z,97.51
2023-02-18T06:18:55.707Z,97.62
2023-02-18T06:21:22.087Z,97.34
2023-02-18T06:23:48.505Z,97.44
2023-02-18T06:26:15.143Z,97.30
2023-02-18T06:28:41.546Z,97.30
2023-02-18T06:31:07.991Z,97.39
2023-02-18T06:33:34.654Z,97.26
2023-02-18T06:36:07.726Z,97.40
2023-02-18T06:38:38.309Z,97.36
2023-02-18T06:41:05.296Z,97.08
2023-02-18T06:43:31.736Z,97.05
2023-02-18T06:45:58.170Z,96.97
2023-02-18T06:48:24.752Z,97.27
2023-02-18T06:50:51.330Z,96.98
2023-02-18T06:53:17.870Z,97.07
2023-02-18T06:55:44.931Z,97.07
2023-02-18T06:58:12.672Z,97.05
2023-02-18T07:00:39.174Z,96.98
2023-02-18T07:03:06.106Z,97.03
2023-02-18T07:05:32.837Z,97.23
2023-02-18T07:07:59.162Z,97.31
2023-02-18T07:10:25.645Z,97.35
2023-02-18T07:12:52.001Z,97.11
2023-02-18T07:15:21.441Z,96.92
2023-02-18T07:17:47.771Z,97.23
2023-02-18T07:20:14.085Z,97.04
2023-02-18T07:22:40.418Z,96.80
2023-02-18T07:25:07.218Z,96.96
2023-02-18T07:27:33.595Z,96.88
2023-02-18T07:29:59.963Z,97.08
2023-02-18T07:32:26.377Z,97.04
2023-02-18T07:34:52.958Z,96.78
2023-02-18T07:37:20.533Z,96.88
2023-02-18T07:39:47.337Z,96.98
2023-02-18T07:42:14.299Z,96.75
2023-02-18T07:44:41.793Z,96.79
2023-02-18T07:47:12.056Z,96.62
2023-02-18T07:49:38.437Z,96.55
2023-02-18T07:52:05.564Z,96.44
2023-02-18T07:54:32.281Z,96.38
2023-02-18T07:56:58.661Z,96.18
2023-02-18T07:59:25.092Z,96.03
2023-02-18T08:01:51.480Z,95.63
2023-02-18T08:04:18.053Z,95.58
2023-02-18T08:06:47.537Z,95.36
2023-02-18T08:09:14.812Z,95.32
2023-02-18T08:11:41.820Z,95.13
2023-02-18T08:14:08.225Z,94.92
2023-02-18T08:16:35.320Z,94.86
2023-02-18T08:19:03.574Z,94.68
2023-02-18T08:21:30.717Z,94.30
2023-02-18T08:23:58.465Z,94.27
2023-02-18T08:26:25.500Z,94.01
2023-02-18T08:28:52.131Z,93.95
2023-02-18T08:31:21.755Z,93.88
2023-02-18T08:33:48.962Z,93.92
2023-02-18T08:36:15.442Z,94.11
2023-02-18T08:38:42.007Z,93.90
2023-02-18T08:41:09.788Z,94.23
2023-02-18T08:43:37.012Z,94.49
2023-02-18T08:46:04.311Z,94.31
2023-02-18T08:48:30.812Z,94.44
2023-02-18T08:50:57.448Z,94.34
2023-02-18T08:53:24.265Z,94.31
2023-02-18T08:55:51.048Z,94.20
2023-02-18T08:58:17.715Z,94.23
2023-02-18T09:00:45.065Z,94.25
2023-02-18T09:03:15.229Z,93.96
2023-02-18T09:05:41.725Z,93.89
2023-02-18T09:08:08.215Z,93.63
2023-02-18T09:10:34.859Z,93.70
2023-02-18T09:13:01.378Z,94.06
2023-02-18T09:15:27.862Z,93.54
2023-02-18T09:17:54.273Z,93.50
2023-02-18T09:20:20.997Z,93.68
2023-02-18T09:22:47.468Z,93.74
2023-02-18T09:25:13.901Z,93.53
2023-02-18T09:27:40.320Z,93.42
2023-02-18T09:30:07.317Z,93.64
2023-02-18T09:32:35.333Z,93.55
2023-02-18T09:35:03.088Z,93.10
2023-02-18T09:37:29.705Z,93.20
2023-02-18T09:39:56.090Z,92.88
2023-02-18T09:42:29.842Z,92.88
2023-02-18T09:45:00.222Z,92.38
2023-02-18T09:47:43.041Z,92.49
2023-02-18T09:50:23.212Z,92.55
2023-02-18T09:52:49.856Z,92.80
2023-02-18T09:55:21.023Z,92.41
2023-02-18T09:57:51.029Z,92.32
2023-02-18T10:00:22.809Z,92.58
2023-02-18T10:03:00.111Z,92.35
2023-02-18T10:05:29.725Z,92.28
2023-02-18T10:08:01.891Z,91.99
2023-02-18T10:10:44.599Z,91.61
2023-02-18T10:13:23.017Z,91.26
2023-02-18T10:15:50.626Z,91.26
2023-02-18T10:21:15.379Z,90.88
2023-02-18T10:23:53.440Z,90.66
2023-02-18T10:26:21.059Z,91.11
2023-02-18T10:28:47.694Z,90.65
2023-02-18T10:31:22.421Z,90.64
2023-02-18T10:34:06.269Z,90.63
2023-02-18T10:36:36.046Z,90.54
2023-02-18T10:39:21.214Z,90.24
2023-02-18T10:42:05.398Z,90.15
2023-02-18T10:44:46.278Z,89.94
2023-02-18T10:47:24.845Z,89.97
2023-02-18T10:50:01.069Z,90.25
2023-02-18T10:52:31.730Z,90.15
2023-02-18T10:55:09.425Z,89.96
2023-02-18T10:57:46.778Z,89.96
2023-02-18T11:00:24.134Z,89.70
2023-02-18T11:03:22.834Z,89.66
2023-02-18T11:05:52.985Z,89.73
2023-02-18T11:08:26.432Z,89.38
2023-02-18T11:10:53.885Z,89.66
2023-02-18T11:13:34.909Z,89.19
2023-02-18T11:16:04.971Z,88.87
2023-02-18T11:18:37.743Z,88.89
2023-02-18T11:21:26.743Z,89.23
2023-02-18T11:23:55.009Z,89.00
2023-02-18T11:26:30.466Z,88.63
2023-02-18T11:29:01.545Z,88.76
2023-02-18T11:31:40.986Z,88.69
2023-02-18T11:34:16.586Z,88.39
2023-02-18T11:36:43.095Z,88.58
2023-02-18T11:39:46.589Z,89.32
2023-02-18T11:42:15.128Z,89.52
2023-02-18T11:44:49.768Z,89.82
2023-02-18T11:47:16.017Z,90.37
2023-02-18T11:49:44.303Z,90.79
2023-02-18T11:52:41.466Z,91.12
2023-02-18T11:55:22.851Z,90.87
2023-02-18T11:57:52.345Z,91.00
2023-02-18T12:00:43.089Z,91.11
2023-02-18T12:03:25.433Z,90.94
2023-02-18T12:05:52.433Z,90.86
2023-02-18T12:08:27.069Z,90.45
2023-02-18T12:11:00.025Z,90.71
2023-02-18T12:13:32.336Z,90.54
2023-02-18T12:16:36.173Z,90.08
2023-02-18T12:19:13.869Z,89.58
2023-02-18T12:21:53.893Z,89.39
2023-02-18T12:24:37.256Z,89.09
2023-02-18T12:27:14.628Z,89.16
2023-02-18T12:29:52.834Z,88.95
2023-02-18T12:32:46.143Z,88.95
2023-02-18T12:35:27.784Z,88.76
2023-02-18T12:38:08.782Z,88.80
2023-02-18T12:41:10.562Z,88.43
2023-02-18T12:44:10.581Z,88.64
2023-02-18T12:47:04.665Z,88.48
2023-02-18T12:49:30.965Z,88.59
2023-02-18T12:52:18.104Z,88.65
2023-02-18T12:54:59.493Z,88.30
2023-02-18T12:57:52.999Z,88.26
2023-02-18T13:00:35.812Z,87.67
2023-02-18T13:03:27.592Z,87.87
2023-02-18T13:06:09.688Z,87.67
2023-02-18T13:08:55.041Z,87.53
2023-02-18T13:11:32.741Z,87.00
2023-02-18T13:14:04.635Z,86.99
2023-02-18T13:16:32.459Z,86.83
2023-02-18T13:19:03.378Z,87.19
2023-02-18T13:21:31.883Z,87.07
2023-02-18T13:24:10.065Z,87.21
2023-02-18T13:26:36.557Z,87.17
2023-02-18T13:29:17.921Z,86.51
2023-02-18T13:31:57.572Z,86.64
2023-02-18T13:34:40.037Z,86.78
2023-02-18T13:37:16.284Z,87.00
2023-02-18T13:39:53.409Z,86.82
2023-02-18T13:42:25.493Z,86.98
2023-02-18T13:44:54.866Z,86.57
2023-02-18T13:47:39.675Z,86.82
2023-02-18T13:50:27.471Z,86.63
2023-02-18T13:53:09.319Z,86.45
2023-02-18T13:55:39.691Z,86.79
2023-02-18T13:58:15.218Z,86.71
2023-02-18T14:00:49.813Z,86.42
2023-02-18T14:03:36.082Z,85.45
2023-02-18T14:06:12.904Z,85.80
2023-02-18T14:08:39.859Z,85.17
2023-02-18T14:11:33.128Z,85.28
2023-02-18T14:13:59.397Z,85.25
2023-02-18T14:16:25.966Z,85.11
2023-02-18T14:18:59.187Z,84.94
2023-02-18T14:21:42.585Z,84.46
2023-02-18T14:24:11.671Z,84.44
2023-02-18T14:26:44.602Z,84.61
2023-02-18T14:29:16.653Z,84.98
2023-02-18T14:32:09.364Z,85.12
2023-02-18T14:35:04.863Z,84.88
2023-02-18T14:37:40.165Z,84.55
2023-02-18T14:40:28.292Z,84.47
2023-02-18T14:43:07.509Z,84.57
2023-02-18T14:46:01.986Z,84.60
2023-02-18T14:48:47.227Z,83.93
2023-02-18T14:51:21.537Z,83.93
2023-02-18T14:53:48.437Z,84.33
2023-02-18T14:56:18.425Z,84.41
2023-02-18T14:58:52.222Z,84.49
2023-02-18T15:01:24.770Z,84.60
2023-02-18T15:03:54.391Z,84.13
2023-02-18T15:06:30.985Z,84.28
2023-02-18T15:09:17.170Z,84.28
2023-02-18T15:11:49.718Z,84.29
2023-02-18T15:14:42.218Z,84.57
2023-02-18T15:17:16.386Z,84.30
2023-02-18T15:19:48.991Z,84.19
2023-02-18T15:22:18.904Z,84.37
2023-02-18T15:24:45.976Z,84.35
2023-02-18T15:27:15.341Z,84.55
2023-02-18T15:29:42.266Z,84.86
2023-02-18T15:32:22.571Z,84.74
2023-02-18T15:34:56.181Z,84.55
2023-02-18T15:37:22.568Z,84.29
2023-02-18T15:39:49.225Z,84.43
2023-02-18T15:42:35.958Z,84.51
2023-02-18T15:45:19.839Z,84.69
2023-02-18T15:47:57.580Z,85.11
2023-02-18T15:50:27.519Z,84.93
2023-02-18T15:52:57.005Z,84.71
2023-02-18T15:55:34.044Z,85.17
2023-02-18T15:58:03.980Z,85.12
2023-02-18T16:00:35.090Z,84.92
2023-02-18T16:03:13.176Z,85.25
2023-02-18T16:05:42.133Z,85.45
2023-02-18T16:08:26.352Z,85.52
2023-02-18T16:11:03.126Z,85.52
2023-02-18T16:13:31.361Z,85.43
2023-02-18T16:16:06.628Z,85.41
2023-02-18T16:18:41.435Z,85.68
2023-02-18T16:21:19.761Z,85.54
2023-02-18T16:23:56.316Z,85.73
2023-02-18T16:26:29.043Z,85.78
2023-02-18T16:29:21.042Z,85.71
2023-02-18T16:31:47.751Z,85.61
2023-02-18T16:34:14.117Z,85.93
2023-02-18T16:37:00.499Z,85.97
2023-02-18T16:39:30.818Z,85.96
2023-02-18T16:41:57.262Z,86.00
2023-02-18T16:44:23.701Z,86.24
2023-02-18T16:46:50.109Z,86.40
2023-02-18T16:49:17.142Z,86.33
2023-02-18T16:51:44.061Z,86.30
2023-02-18T16:54:14.085Z,86.40
2023-02-18T16:56:40.616Z,86.44
2023-02-18T16:59:07.207Z,86.43
2023-02-18T17:01:44.015Z,86.58
2023-02-18T17:04:16.047Z,86.55
2023-02-18T17:06:43.463Z,86.51
2023-02-18T17:09:18.155Z,86.63
2023-02-18T17:11:46.853Z,86.66
2023-02-18T17:14:15.210Z,86.57
2023-02-18T17:16:41.552Z,86.75
2023-02-18T17:19:07.938Z,86.77
2023-02-18T17:21:35.264Z,86.81
2023-02-18T17:24:02.121Z,87.02
2023-02-18T17:26:30.020Z,86.87
2023-02-18T17:28:58.452Z,87.10
2023-02-18T17:31:27.613Z,87.07
2023-02-18T17:33:56.544Z,87.10
2023-02-18T17:36:23.058Z,87.04
2023-02-18T17:38:49.434Z,87.02
2023-02-18T17:41:16.456Z,87.26
2023-02-18T17:43:42.814Z,87.21
2023-02-18T17:46:15.026Z,87.12
2023-02-18T17:48:42.362Z,87.13
2023-02-18T17:51:22.539Z,87.31
2023-02-18T17:53:48.945Z,87.23
2023-02-18T17:56:15.599Z,87.25
2023-02-18T17:58:42.058Z,87.49
2023-02-18T18:01:10.390Z,87.58
2023-02-18T18:03:36.958Z,87.83
2023-02-18T18:06:04.485Z,87.78
2023-02-18T18:08:31.276Z,88.08
2023-02-18T18:11:00.170Z,88.05
2023-02-18T18:13:29.160Z,88.47
2023-02-18T18:15:57.936Z,88.85
2023-02-18T18:18:25.431Z,89.04
2023-02-18T18:20:54.318Z,89.54
2023-02-18T18:23:21.582Z,89.86
2023-02-18T18:25:53.788Z,90.41
2023-02-18T18:28:20.384Z,90.77
2023-02-18T18:30:49.999Z,90.87
2023-02-18T18:33:29.366Z,90.93
2023-02-18T18:35:57.247Z,91.23
2023-02-18T18:38:26.178Z,91.58
2023-02-18T18:40:53.834Z,91.87
2023-02-18T18:43:26.419Z,91.82
2023-02-18T18:45:53.422Z,91.79
2023-02-18T18:48:21.084Z,92.00
2023-02-18T18:50:49.338Z,91.92
2023-02-18T18:53:33.871Z,92.10
2023-02-18T18:56:03.765Z,92.10
2023-02-18T18:58:31.529Z,92.23
2023-02-18T19:01:01.395Z,92.22
2023-02-18T19:03:28.979Z,92.24
2023-02-18T19:05:55.916Z,92.42
2023-02-18T19:08:22.337Z,92.48
2023-02-18T19:10:57.137Z,92.56
2023-02-18T19:13:29.914Z,92.58
2023-02-18T19:16:27.241Z,92.65
2023-02-18T19:18:54.261Z,92.62
2023-02-18T19:21:20.685Z,92.67
2023-02-18T19:23:47.121Z,92.55
2023-02-18T19:26:14.897Z,92.72
2023-02-18T19:28:41.614Z,92.53
2023-02-18T19:31:11.602Z,92.83
2023-02-18T19:33:39.120Z,92.81
2023-02-18T19:36:10.504Z,92.66
2023-02-18T19:38:37.421Z,92.83
2023-02-18T19:41:14.589Z,92.71
2023-02-18T19:43:41.995Z,93.00
2023-02-18T19:46:10.736Z,92.94
2023-02-18T19:48:37.892Z,92.73
2023-02-18T19:51:05.282Z,93.01
2023-02-18T19:53:31.717Z,93.04
2023-02-18T19:56:02.007Z,93.03
2023-02-18T19:58:29.105Z,93.08
2023-02-18T20:00:56.572Z,93.10
2023-02-18T20:03:22.963Z,93.13
2023-02-18T20:05:49.490Z,93.36
2023-02-18T20:08:15.862Z,93.50
2023-02-18T20:10:42.258Z,93.68
2023-02-18T20:13:11.385Z,93.58
2023-02-18T20:15:41.291Z,93.61
2023-02-18T20:18:07.945Z,93.72
2023-02-18T20:20:34.282Z,93.70
2023-02-18T20:23:00.700Z,94.00
2023-02-18T20:25:28.222Z,93.82
2023-02-18T20:28:00.823Z,93.86
2023-02-18T20:30:28.013Z,93.78
2023-02-18T20:32:54.377Z,93.90
2023-02-18T20:35:20.771Z,93.96
2023-02-18T20:37:47.205Z,93.96
2023-02-18T20:40:13.673Z,94.09
2023-02-18T20:42:41.924Z,94.11
2023-02-18T20:45:09.102Z,93.91
2023-02-18T20:47:35.450Z,94.16
2023-02-18T20:50:01.819Z,94.02
2023-02-18T20:52:28.308Z,94.04
2023-02-18T20:54:54.685Z,94.13
2023-02-18T20:57:21.069Z,94.20
2023-02-18T20:59:47.461Z,94.39
2023-02-18T21:02:14.605Z,94.24
2023-02-18T21:04:41.019Z,94.33
2023-02-18T21:07:07.380Z,94.46
2023-02-18T21:09:33.778Z,94.55
2023-02-18T21:12:00.147Z,94.61
2023-02-18T21:14:26.551Z,94.73
2023-02-18T21:16:52.939Z,94.74
2023-02-18T21:19:19.347Z,94.69
2023-02-18T21:21:47.387Z,94.84
2023-02-18T21:24:14.139Z,94.73
2023-02-18T21:26:40.525Z,94.73
2023-02-18T21:29:08.512Z,94.71
2023-02-18T21:31:37.872Z,94.72
2023-02-18T21:34:06.217Z,94.63
2023-02-18T21:36:33.712Z,94.77
2023-02-18T21:39:02.496Z,94.73
2023-02-18T21:41:29.783Z,94.95
2023-02-18T21:43:56.558Z,94.60
2023-02-18T21:46:25.766Z,94.82
2023-02-18T21:49:10.659Z,94.54
2023-02-18T21:51:56.304Z,94.60
2023-02-18T21:54:35.892Z,94.56
2023-02-18T21:57:04.100Z,94.71
2023-02-18T21:59:31.325Z,94.85
2023-02-18T22:02:02.014Z,94.83
2023-02-18T22:04:33.125Z,94.76
2023-02-18T22:07:00.019Z,94.77
2023-02-18T22:09:27.166Z,94.84
2023-02-18T22:11:54.014Z,94.84
2023-02-18T22:14:20.371Z,94.80
2023-02-18T22:16:46.860Z,94.69
2023-02-18T22:19:14.452Z,94.63
2023-02-18T22:21:41.592Z,94.73
2023-02-18T22:24:08.402Z,94.78
2023-02-18T22:26:35.157Z,94.56
2023-02-18T22:29:01.790Z,94.55
2023-02-18T22:31:30.167Z,94.51
2023-02-18T22:33:57.885Z,94.70
2023-02-18T22:36:25.745Z,94.39
2023-02-18T22:38:53.939Z,94.51
2023-02-18T22:41:22.885Z,94.42
2023-02-18T22:44:03.348Z,94.36
2023-02-18T22:46:31.137Z,94.41
2023-02-18T22:48:59.508Z,94.22
2023-02-18T22:51:31.496Z,94.52
2023-02-18T22:53:59.443Z,94.28
2023-02-18T22:56:27.990Z,94.19
2023-02-18T22:58:55.680Z,94.28
2023-02-18T23:01:31.114Z,94.22
2023-02-18T23:04:02.388Z,94.16
2023-02-18T23:06:29.106Z,94.28
2023-02-18T23:08:56.428Z,94.59
2023-02-18T23:11:22.846Z,94.41
2023-02-18T23:14:07.924Z,94.53
2023-02-18T23:16:54.992Z,94.51
2023-02-18T23:19:21.720Z,94.45
2023-02-18T23:21:48.350Z,94.37
2023-02-18T23:24:14.872Z,94.46
2023-02-18T23:26:41.653Z,94.58
2023-02-18T23:29:08.589Z,94.53
2023-02-18T23:31:37.699Z,94.33
2023-02-18T23:34:06.295Z,94.37
2023-02-18T23:36:34.751Z,94.62
2023-02-18T23:39:04.690Z,94.51
2023-02-18T23:41:31.530Z,94.54
2023-02-18T23:43:57.859Z,94.62
2023-02-18T23:46:26.518Z,94.78
2023-02-18T23:48:52.874Z,94.47
2023-02-18T23:51:21.463Z,94.33
2023-02-18T23:53:48.291Z,94.49
2023-02-18T23:56:16.077Z,94.72
2023-02-18T23:58:44.473Z,94.64
